createdAt,value
2017-01-26T00:00:01.032Z,932.04
2017-01-26T00:00:29.169Z,931.99
2017-01-26T00:00:57.313Z,932.01
2017-01-26T00:01:25.555Z,932.05
2017-01-26T00:01:53.751Z,932.05
2017-01-26T00:02:21.932Z,932.08
2017-01-26T00:02:50.093Z,932.03
2017-01-26T00:03:18.266Z,932.1
2017-01-26T00:03:46.418Z,932.15
2017-01-26T00:04:14.572Z,932.15
2017-01-26T00:04:42.746Z,932.11
2017-01-26T00:05:10.905Z,932.15
2017-01-26T00:05:39.096Z,932.12
2017-01-26T00:06:07.463Z,932.11
2017-01-26T00:06:35.617Z,932.11
2017-01-26T00:07:03.784Z,932.11
2017-01-26T00:07:31.909Z,932.12
2017-01-26T00:08:00.258Z,932.11
2017-01-26T00:08:28.416Z,932.12
2017-01-26T00:08:56.566Z,932.08
2017-01-26T00:09:24.725Z,932.12
2017-01-26T00:09:52.891Z,932.13
2017-01-26T00:10:21.060Z,932.13
2017-01-26T00:10:49.210Z,932.15
2017-01-26T00:11:17.346Z,932.12
2017-01-26T00:11:45.517Z,932.13
2017-01-26T00:12:13.668Z,932.12
2017-01-26T00:12:41.814Z,932.14
2017-01-26T00:13:09.963Z,932.13
2017-01-26T00:13:38.108Z,932.12
2017-01-26T00:14:06.385Z,932.09
2017-01-26T00:14:34.552Z,932.12
2017-01-26T00:15:02.687Z,932.09
2017-01-26T00:15:30.874Z,932.12
2017-01-26T00:15:59.036Z,932.14
2017-01-26T00:16:27.183Z,932.14
2017-01-26T00:16:55.349Z,932.13
2017-01-26T00:17:23.565Z,932.18
2017-01-26T00:17:51.755Z,932.09
2017-01-26T00:18:19.948Z,932.17
2017-01-26T00:18:48.137Z,932.17
2017-01-26T00:19:16.297Z,932.16
2017-01-26T00:19:44.492Z,932.18
2017-01-26T00:20:12.648Z,932.19
2017-01-26T00:20:40.793Z,932.14
2017-01-26T00:21:09.028Z,932.2
2017-01-26T00:21:37.189Z,932.16
2017-01-26T00:22:05.361Z,932.18
2017-01-26T00:22:33.538Z,932.17
2017-01-26T00:23:01.683Z,932.15
2017-01-26T00:23:29.842Z,932.18
2017-01-26T00:23:57.992Z,932.18
2017-01-26T00:24:26.133Z,932.17
2017-01-26T00:24:54.310Z,932.18
2017-01-26T00:25:22.577Z,932.17
2017-01-26T00:25:50.901Z,932.17
2017-01-26T00:26:19.154Z,932.18
2017-01-26T00:26:47.341Z,932.22
2017-01-26T00:27:15.496Z,932.23
2017-01-26T00:27:43.640Z,932.2
2017-01-26T00:28:11.795Z,932.19
2017-01-26T00:28:39.969Z,932.17
2017-01-26T00:29:08.104Z,932.21
2017-01-26T00:29:36.231Z,932.22
2017-01-26T00:30:04.492Z,932.22
2017-01-26T00:30:32.642Z,932.21
2017-01-26T00:31:00.887Z,932.24
2017-01-26T00:31:29.048Z,932.22
2017-01-26T00:31:57.308Z,932.23
2017-01-26T00:32:25.635Z,932.22
2017-01-26T00:32:53.846Z,932.24
2017-01-26T00:33:22.019Z,932.2
2017-01-26T00:33:50.230Z,932.22
2017-01-26T00:34:18.509Z,932.23
2017-01-26T00:34:46.664Z,932.2
2017-01-26T00:35:14.873Z,932.21
2017-01-26T00:35:43.052Z,932.2
2017-01-26T00:36:11.200Z,932.23
2017-01-26T00:36:39.344Z,932.2
2017-01-26T00:37:07.504Z,932.2
2017-01-26T00:37:35.744Z,932.24
2017-01-26T00:38:04.006Z,932.19
2017-01-26T00:38:32.255Z,932.21
2017-01-26T00:39:00.404Z,932.19
2017-01-26T00:39:28.561Z,932.21
2017-01-26T00:39:56.712Z,932.19
2017-01-26T00:40:24.890Z,932.19
2017-01-26T00:40:53.070Z,932.2
2017-01-26T00:41:21.231Z,932.21
2017-01-26T00:41:49.384Z,932.21
2017-01-26T00:42:17.627Z,932.23
2017-01-26T00:42:45.861Z,932.24
2017-01-26T00:43:14.011Z,932.19
2017-01-26T00:43:42.181Z,932.21
2017-01-26T00:44:10.352Z,932.22
2017-01-26T00:44:38.666Z,932.16
2017-01-26T00:45:06.856Z,932.19
2017-01-26T00:45:35.014Z,932.17
2017-01-26T00:46:03.154Z,932.19
2017-01-26T00:46:31.327Z,932.17
2017-01-26T00:46:59.478Z,932.17
2017-01-26T00:47:27.649Z,932.2
2017-01-26T00:47:55.827Z,932.2
2017-01-26T00:48:24.089Z,932.19
2017-01-26T00:48:52.342Z,932.18
2017-01-26T00:49:20.504Z,932.2
2017-01-26T00:49:48.662Z,932.23
2017-01-26T00:50:16.854Z,932.21
2017-01-26T00:50:45.035Z,932.16
2017-01-26T00:51:13.197Z,932.18
2017-01-26T00:51:41.336Z,932.18
2017-01-26T00:52:09.573Z,932.19
2017-01-26T00:52:37.768Z,932.18
2017-01-26T00:53:06.047Z,932.16
2017-01-26T00:53:34.214Z,932.18
2017-01-26T00:54:02.380Z,932.19
2017-01-26T00:54:30.540Z,932.22
2017-01-26T00:54:58.699Z,932.23
2017-01-26T00:55:26.892Z,932.21
2017-01-26T00:55:55.043Z,932.17
2017-01-26T00:56:23.223Z,932.19
2017-01-26T00:56:51.386Z,932.2
2017-01-26T00:57:19.559Z,932.18
2017-01-26T00:57:47.708Z,932.15
2017-01-26T00:58:15.867Z,932.16
2017-01-26T00:58:44.054Z,932.15
2017-01-26T00:59:12.305Z,932.16
2017-01-26T00:59:40.494Z,932.13
2017-01-26T01:00:08.767Z,932.14
2017-01-26T01:00:37.279Z,932.12
2017-01-26T01:01:05.430Z,932.12
2017-01-26T01:01:33.576Z,932.1
2017-01-26T01:02:01.758Z,932.14
2017-01-26T01:02:29.912Z,932.15
2017-01-26T01:02:58.076Z,932.11
2017-01-26T01:03:26.239Z,932.13
2017-01-26T01:03:54.386Z,932.12
2017-01-26T01:04:22.709Z,932.11
2017-01-26T01:04:50.910Z,932.13
2017-01-26T01:05:19.087Z,932.12
2017-01-26T01:05:47.492Z,932.09
2017-01-26T01:06:15.636Z,932.09
2017-01-26T01:06:43.778Z,932.1
2017-01-26T01:07:11.956Z,932.1
2017-01-26T01:07:40.138Z,932.12
2017-01-26T01:08:08.414Z,932.11
2017-01-26T01:08:36.866Z,932.11
2017-01-26T01:09:05.041Z,932.14
2017-01-26T01:09:33.232Z,932.16
2017-01-26T01:10:01.488Z,932.14
2017-01-26T01:10:29.757Z,932.17
2017-01-26T01:10:58.283Z,932.16
2017-01-26T01:11:26.404Z,932.13
2017-01-26T01:11:54.626Z,932.13
2017-01-26T01:12:22.779Z,932.14
2017-01-26T01:12:51.263Z,932.14
2017-01-26T01:13:19.454Z,932.12
2017-01-26T01:13:47.772Z,932.09
2017-01-26T01:14:16.174Z,932.13
2017-01-26T01:14:44.360Z,932.12
2017-01-26T01:15:12.648Z,932.13
2017-01-26T01:15:40.785Z,932.12
2017-01-26T01:16:09.063Z,932.1
2017-01-26T01:16:37.242Z,932.14
2017-01-26T01:17:06.014Z,932.13
2017-01-26T01:17:34.148Z,932.15
2017-01-26T01:18:02.317Z,932.15
2017-01-26T01:18:30.447Z,932.13
2017-01-26T01:18:58.645Z,932.17
2017-01-26T01:19:26.821Z,932.13
2017-01-26T01:19:55.005Z,932.1
2017-01-26T01:20:23.350Z,932.15
2017-01-26T01:20:51.528Z,932.14
2017-01-26T01:21:19.680Z,932.13
2017-01-26T01:21:47.877Z,932.12
2017-01-26T01:22:16.076Z,932.14
2017-01-26T01:22:44.223Z,932.13
2017-01-26T01:23:12.389Z,932.11
2017-01-26T01:23:40.574Z,932.14
2017-01-26T01:24:08.727Z,932.11
2017-01-26T01:24:36.988Z,932.12
2017-01-26T01:25:05.267Z,932.17
2017-01-26T01:25:33.455Z,932.14
2017-01-26T01:26:01.619Z,932.13
2017-01-26T01:26:29.803Z,932.16
2017-01-26T01:26:57.969Z,932.14
2017-01-26T01:27:26.254Z,932.16
2017-01-26T01:27:54.429Z,932.14
2017-01-26T01:28:22.727Z,932.18
2017-01-26T01:28:50.891Z,932.17
2017-01-26T01:29:19.034Z,932.21
2017-01-26T01:29:47.282Z,932.21
2017-01-26T01:30:15.523Z,932.18
2017-01-26T01:30:43.676Z,932.14
2017-01-26T01:31:11.874Z,932.2
2017-01-26T01:31:40.011Z,932.16
2017-01-26T01:32:08.192Z,932.19
2017-01-26T01:32:36.354Z,932.21
2017-01-26T01:33:04.520Z,932.23
2017-01-26T01:33:32.691Z,932.23
2017-01-26T01:34:00.869Z,932.21
2017-01-26T01:34:29.031Z,932.22
2017-01-26T01:34:57.400Z,932.2
2017-01-26T01:35:25.619Z,932.22
2017-01-26T01:35:53.797Z,932.22
2017-01-26T01:36:22.007Z,932.22
2017-01-26T01:36:50.306Z,932.22
2017-01-26T01:37:18.459Z,932.2
2017-01-26T01:37:46.629Z,932.2
2017-01-26T01:38:14.865Z,932.2
2017-01-26T01:38:43.021Z,932.18
2017-01-26T01:39:11.165Z,932.16
2017-01-26T01:39:39.317Z,932.17
2017-01-26T01:40:07.500Z,932.17
2017-01-26T01:40:35.675Z,932.16
2017-01-26T01:41:03.811Z,932.18
2017-01-26T01:41:32.001Z,932.16
2017-01-26T01:42:00.170Z,932.17
2017-01-26T01:42:28.322Z,932.16
2017-01-26T01:42:56.495Z,932.13
2017-01-26T01:43:24.675Z,932.14
2017-01-26T01:43:52.835Z,932.13
2017-01-26T01:44:21.013Z,932.1
2017-01-26T01:44:49.179Z,932.1
2017-01-26T01:45:17.372Z,932.1
2017-01-26T01:45:45.549Z,932.08
2017-01-26T01:46:13.794Z,932.1
2017-01-26T01:46:41.954Z,932.06
2017-01-26T01:47:10.233Z,932.07
2017-01-26T01:47:38.416Z,932.06
2017-01-26T01:48:06.580Z,932.1
2017-01-26T01:48:34.734Z,932.13
2017-01-26T01:49:02.922Z,932.11
2017-01-26T01:49:31.178Z,932.08
2017-01-26T01:49:59.375Z,932.11
2017-01-26T01:50:27.641Z,932.07
2017-01-26T01:50:55.807Z,932.08
2017-01-26T01:51:24.051Z,932.06
2017-01-26T01:51:52.197Z,932.07
2017-01-26T01:52:20.355Z,932.01
2017-01-26T01:52:48.513Z,932.01
2017-01-26T01:53:16.671Z,932.02
2017-01-26T01:53:44.826Z,932.01
2017-01-26T01:54:13.002Z,932.01
2017-01-26T01:54:41.196Z,932
2017-01-26T01:55:09.341Z,932.02
2017-01-26T01:55:37.568Z,932
2017-01-26T01:56:05.744Z,931.99
2017-01-26T01:56:34.028Z,931.98
2017-01-26T01:57:02.230Z,931.96
2017-01-26T01:57:30.410Z,931.96
2017-01-26T01:57:58.625Z,931.97
2017-01-26T01:58:26.793Z,931.95
2017-01-26T01:58:54.984Z,931.93
2017-01-26T01:59:23.136Z,931.93
2017-01-26T01:59:51.288Z,931.95
2017-01-26T02:00:19.429Z,931.95
2017-01-26T02:00:47.594Z,931.93
2017-01-26T02:01:15.759Z,931.95
2017-01-26T02:01:43.915Z,931.96
2017-01-26T02:02:12.165Z,931.98
2017-01-26T02:02:40.313Z,931.96
2017-01-26T02:03:08.454Z,931.96
2017-01-26T02:03:36.609Z,931.97
2017-01-26T02:04:04.750Z,931.97
2017-01-26T02:04:32.898Z,931.95
2017-01-26T02:05:01.085Z,932
2017-01-26T02:05:29.248Z,931.97
2017-01-26T02:05:57.520Z,931.96
2017-01-26T02:06:25.766Z,931.94
2017-01-26T02:06:53.925Z,931.93
2017-01-26T02:07:22.093Z,931.93
2017-01-26T02:07:50.246Z,931.96
2017-01-26T02:08:18.454Z,931.96
2017-01-26T02:08:46.605Z,931.97
2017-01-26T02:09:14.774Z,931.93
2017-01-26T02:09:42.923Z,931.91
2017-01-26T02:10:11.079Z,931.91
2017-01-26T02:10:39.245Z,931.92
2017-01-26T02:11:07.398Z,931.9
2017-01-26T02:11:35.537Z,931.92
2017-01-26T02:12:03.695Z,931.91
2017-01-26T02:12:31.849Z,931.91
2017-01-26T02:12:59.995Z,931.89
2017-01-26T02:13:28.140Z,931.91
2017-01-26T02:13:56.300Z,931.93
2017-01-26T02:14:24.468Z,931.93
2017-01-26T02:14:52.642Z,931.9
2017-01-26T02:15:20.899Z,931.92
2017-01-26T02:15:49.189Z,931.91
2017-01-26T02:16:17.476Z,931.91
2017-01-26T02:16:45.736Z,931.89
2017-01-26T02:17:13.878Z,931.92
2017-01-26T02:17:42.208Z,931.9
2017-01-26T02:18:10.365Z,931.91
2017-01-26T02:18:38.517Z,931.9
2017-01-26T02:19:06.659Z,931.91
2017-01-26T02:19:34.793Z,931.91
2017-01-26T02:20:02.949Z,931.91
2017-01-26T02:20:31.099Z,931.92
2017-01-26T02:20:59.260Z,931.92
2017-01-26T02:21:27.405Z,931.93
2017-01-26T02:21:55.550Z,931.92
2017-01-26T02:22:23.731Z,931.92
2017-01-26T02:22:51.921Z,931.92
2017-01-26T02:23:20.076Z,931.89
2017-01-26T02:23:48.233Z,931.9
2017-01-26T02:24:16.371Z,931.89
2017-01-26T02:24:44.551Z,931.88
2017-01-26T02:25:12.686Z,931.92
2017-01-26T02:25:40.856Z,931.96
2017-01-26T02:26:09.097Z,931.96
2017-01-26T02:26:37.267Z,931.96
2017-01-26T02:27:05.414Z,931.99
2017-01-26T02:27:33.570Z,932.01
2017-01-26T02:28:01.742Z,932.01
2017-01-26T02:28:29.898Z,932
2017-01-26T02:28:58.090Z,932.01
2017-01-26T02:29:26.270Z,932
2017-01-26T02:29:54.441Z,932.02
2017-01-26T02:30:22.573Z,932.02
2017-01-26T02:30:50.767Z,932.05
2017-01-26T02:31:18.934Z,931.98
2017-01-26T02:31:47.152Z,932.02
2017-01-26T02:32:15.321Z,931.99
2017-01-26T02:32:43.471Z,931.99
2017-01-26T02:33:11.680Z,931.98
2017-01-26T02:33:39.845Z,932.03
2017-01-26T02:34:08.027Z,932.03
2017-01-26T02:34:36.205Z,932.05
2017-01-26T02:35:04.386Z,932.02
2017-01-26T02:35:32.530Z,932.04
2017-01-26T02:36:00.726Z,932.06
2017-01-26T02:36:29.086Z,932.05
2017-01-26T02:36:57.283Z,932
2017-01-26T02:37:25.453Z,932.04
2017-01-26T02:37:53.628Z,932.02
2017-01-26T02:38:21.781Z,932.04
2017-01-26T02:38:49.933Z,932
2017-01-26T02:39:18.073Z,932.04
2017-01-26T02:39:46.216Z,932
2017-01-26T02:40:14.482Z,932.01
2017-01-26T02:40:42.736Z,932.03
2017-01-26T02:41:10.884Z,932.02
2017-01-26T02:41:39.155Z,932
2017-01-26T02:42:07.332Z,932.03
2017-01-26T02:42:35.505Z,932
2017-01-26T02:43:03.657Z,931.99
2017-01-26T02:43:31.795Z,932.03
2017-01-26T02:43:59.949Z,932.03
2017-01-26T02:44:28.107Z,932.01
2017-01-26T02:44:56.284Z,932.02
2017-01-26T02:45:24.417Z,932.02
2017-01-26T02:45:52.569Z,931.99
2017-01-26T02:46:20.729Z,932
2017-01-26T02:46:48.884Z,932.03
2017-01-26T02:47:17.038Z,932.01
2017-01-26T02:47:45.229Z,931.99
2017-01-26T02:48:13.391Z,931.99
2017-01-26T02:48:41.564Z,931.97
2017-01-26T02:49:09.731Z,931.96
2017-01-26T02:49:37.895Z,931.96
2017-01-26T02:50:06.070Z,931.99
2017-01-26T02:50:34.255Z,931.96
2017-01-26T02:51:02.511Z,931.97
2017-01-26T02:51:30.669Z,931.99
2017-01-26T02:51:58.812Z,931.96
2017-01-26T02:52:27.006Z,931.96
2017-01-26T02:52:55.294Z,931.98
2017-01-26T02:53:23.471Z,931.96
2017-01-26T02:53:51.641Z,931.94
2017-01-26T02:54:19.835Z,931.94
2017-01-26T02:54:48.006Z,931.96
2017-01-26T02:55:17.499Z,931.97
2017-01-26T02:55:45.729Z,931.94
2017-01-26T02:56:13.977Z,931.97
2017-01-26T02:56:42.171Z,931.94
2017-01-26T02:57:10.333Z,931.97
2017-01-26T02:57:38.501Z,931.96
2017-01-26T02:58:06.660Z,931.92
2017-01-26T02:58:34.830Z,931.95
2017-01-26T02:59:02.997Z,931.95
2017-01-26T02:59:31.129Z,931.9
2017-01-26T02:59:59.270Z,931.92
2017-01-26T03:00:27.436Z,931.91
2017-01-26T03:00:55.600Z,931.88
2017-01-26T03:01:23.842Z,931.91
2017-01-26T03:01:51.984Z,931.91
2017-01-26T03:02:20.138Z,931.89
2017-01-26T03:02:48.309Z,931.91
2017-01-26T03:03:16.481Z,931.91
2017-01-26T03:03:44.829Z,931.91
2017-01-26T03:04:13.110Z,931.92
2017-01-26T03:04:41.282Z,931.87
2017-01-26T03:05:09.447Z,931.88
2017-01-26T03:05:37.718Z,931.88
2017-01-26T03:06:05.965Z,931.87
2017-01-26T03:06:34.126Z,931.84
2017-01-26T03:07:02.310Z,931.85
2017-01-26T03:07:30.591Z,931.84
2017-01-26T03:07:58.742Z,931.83
2017-01-26T03:08:26.932Z,931.81
2017-01-26T03:08:55.088Z,931.82
2017-01-26T03:09:23.271Z,931.8
2017-01-26T03:09:51.528Z,931.78
2017-01-26T03:10:19.719Z,931.78
2017-01-26T03:10:47.947Z,931.71
2017-01-26T03:11:16.103Z,931.75
2017-01-26T03:11:44.438Z,931.71
2017-01-26T03:12:12.578Z,931.71
2017-01-26T03:12:40.768Z,931.71
2017-01-26T03:13:08.935Z,931.67
2017-01-26T03:13:37.105Z,931.66
2017-01-26T03:14:05.331Z,931.63
2017-01-26T03:14:33.497Z,931.64
2017-01-26T03:15:01.662Z,931.6
2017-01-26T03:15:29.936Z,931.59
2017-01-26T03:15:58.177Z,931.57
2017-01-26T03:16:26.341Z,931.53
2017-01-26T03:16:54.506Z,931.48
2017-01-26T03:17:22.669Z,931.45
2017-01-26T03:17:50.960Z,931.42
2017-01-26T03:18:19.094Z,931.41
2017-01-26T03:18:47.763Z,931.44
2017-01-26T03:19:21.508Z,931.45
2017-01-26T03:19:49.670Z,931.4
2017-01-26T03:20:17.954Z,931.4
2017-01-26T03:20:46.160Z,931.4
2017-01-26T03:21:14.326Z,931.39
2017-01-26T03:21:42.490Z,931.39
2017-01-26T03:22:10.651Z,931.38
2017-01-26T03:22:38.794Z,931.4
2017-01-26T03:23:06.936Z,931.41
2017-01-26T03:23:35.061Z,931.41
2017-01-26T03:24:03.301Z,931.42
2017-01-26T03:24:31.592Z,931.39
2017-01-26T03:24:59.761Z,931.4
2017-01-26T03:25:28.046Z,931.4
2017-01-26T03:25:56.208Z,931.39
2017-01-26T03:26:24.389Z,931.41
2017-01-26T03:26:52.531Z,931.4
2017-01-26T03:27:20.675Z,931.44
2017-01-26T03:27:48.955Z,931.39
2017-01-26T03:28:17.144Z,931.42
2017-01-26T03:28:45.310Z,931.41
2017-01-26T03:29:13.479Z,931.4
2017-01-26T03:29:41.651Z,931.39
2017-01-26T03:30:09.836Z,931.4
2017-01-26T03:30:38.090Z,931.37
2017-01-26T03:31:06.247Z,931.39
2017-01-26T03:31:34.411Z,931.39
2017-01-26T03:32:02.614Z,931.37
2017-01-26T03:32:30.758Z,931.41
2017-01-26T03:32:58.936Z,931.36
2017-01-26T03:33:27.094Z,931.38
2017-01-26T03:33:55.265Z,931.35
2017-01-26T03:34:23.461Z,931.38
2017-01-26T03:34:51.665Z,931.38
2017-01-26T03:35:19.824Z,931.37
2017-01-26T03:35:48.016Z,931.36
2017-01-26T03:36:16.211Z,931.36
2017-01-26T03:36:44.421Z,931.36
2017-01-26T03:37:12.572Z,931.33
2017-01-26T03:37:40.740Z,931.31
2017-01-26T03:38:08.926Z,931.33
2017-01-26T03:38:37.092Z,931.34
2017-01-26T03:39:05.337Z,931.32
2017-01-26T03:39:33.486Z,931.32
2017-01-26T03:40:01.645Z,931.29
2017-01-26T03:40:29.802Z,931.31
2017-01-26T03:40:57.976Z,931.32
2017-01-26T03:41:26.109Z,931.32
2017-01-26T03:41:54.271Z,931.37
2017-01-26T03:42:22.408Z,931.36
2017-01-26T03:42:50.584Z,931.33
2017-01-26T03:43:18.756Z,931.35
2017-01-26T03:43:46.968Z,931.35
2017-01-26T03:44:15.257Z,931.35
2017-01-26T03:44:43.416Z,931.35
2017-01-26T03:45:11.574Z,931.39
2017-01-26T03:45:39.755Z,931.34
2017-01-26T03:46:07.922Z,931.37
2017-01-26T03:46:36.097Z,931.39
2017-01-26T03:47:04.328Z,931.39
2017-01-26T03:47:32.562Z,931.36
2017-01-26T03:48:00.698Z,931.37
2017-01-26T03:48:28.880Z,931.38
2017-01-26T03:48:57.052Z,931.43
2017-01-26T03:49:25.211Z,931.38
2017-01-26T03:49:53.364Z,931.42
2017-01-26T03:50:21.705Z,931.41
2017-01-26T03:50:50.120Z,931.4
2017-01-26T03:51:18.272Z,931.43
2017-01-26T03:51:46.455Z,931.42
2017-01-26T03:52:14.594Z,931.43
2017-01-26T03:52:42.828Z,931.44
2017-01-26T03:53:10.970Z,931.41
2017-01-26T03:53:39.156Z,931.44
2017-01-26T03:54:07.407Z,931.44
2017-01-26T03:54:35.770Z,931.41
2017-01-26T03:55:03.911Z,931.43
2017-01-26T03:55:32.100Z,931.46
2017-01-26T03:56:00.327Z,931.41
2017-01-26T03:56:28.473Z,931.44
2017-01-26T03:56:56.629Z,931.48
2017-01-26T03:57:24.802Z,931.45
2017-01-26T03:57:53.026Z,931.43
2017-01-26T03:58:21.202Z,931.44
2017-01-26T03:58:49.375Z,931.41
2017-01-26T03:59:17.513Z,931.41
2017-01-26T03:59:45.703Z,931.38
2017-01-26T04:00:13.894Z,931.39
2017-01-26T04:00:42.055Z,931.39
2017-01-26T04:01:10.194Z,931.36
2017-01-26T04:01:38.339Z,931.39
2017-01-26T04:02:06.578Z,931.4
2017-01-26T04:02:34.744Z,931.36
2017-01-26T04:03:02.889Z,931.37
2017-01-26T04:03:31.039Z,931.36
2017-01-26T04:03:59.206Z,931.32
2017-01-26T04:04:27.360Z,931.31
2017-01-26T04:04:55.496Z,931.36
2017-01-26T04:05:23.671Z,931.33
2017-01-26T04:05:51.858Z,931.28
2017-01-26T04:06:20.133Z,931.31
2017-01-26T04:06:48.379Z,931.29
2017-01-26T04:07:16.557Z,931.28
2017-01-26T04:07:44.698Z,931.27
2017-01-26T04:08:12.912Z,931.28
2017-01-26T04:08:41.044Z,931.26
2017-01-26T04:09:09.284Z,931.2
2017-01-26T04:09:37.422Z,931.25
2017-01-26T04:10:05.579Z,931.23
2017-01-26T04:10:33.786Z,931.22
2017-01-26T04:11:01.952Z,931.22
2017-01-26T04:11:30.306Z,931.19
2017-01-26T04:11:58.483Z,931.16
2017-01-26T04:12:26.651Z,931.14
2017-01-26T04:12:54.796Z,931.16
2017-01-26T04:13:22.940Z,931.16
2017-01-26T04:13:51.087Z,931.13
2017-01-26T04:14:19.246Z,931.12
2017-01-26T04:14:47.405Z,931.11
2017-01-26T04:15:15.558Z,931.09
2017-01-26T04:15:43.729Z,931.04
2017-01-26T04:16:11.907Z,931.05
2017-01-26T04:16:40.053Z,931.05
2017-01-26T04:17:08.205Z,931.05
2017-01-26T04:17:36.385Z,931
2017-01-26T04:18:04.524Z,931.02
2017-01-26T04:18:35.963Z,931.02
2017-01-26T04:19:05.671Z,931.01
2017-01-26T04:19:33.849Z,931.02
2017-01-26T04:20:02.027Z,931.01
2017-01-26T04:20:30.181Z,931
2017-01-26T04:20:58.330Z,930.99
2017-01-26T04:21:26.508Z,931
2017-01-26T04:21:54.646Z,931.04
2017-01-26T04:22:22.810Z,931.06
2017-01-26T04:22:50.976Z,931.1
2017-01-26T04:23:19.379Z,931.06
2017-01-26T04:23:47.554Z,931.04
2017-01-26T04:24:15.751Z,931.05
2017-01-26T04:24:43.932Z,931.1
2017-01-26T04:25:12.079Z,931.08
2017-01-26T04:25:40.326Z,931.04
2017-01-26T04:26:08.503Z,931.04
2017-01-26T04:26:36.633Z,931.06
2017-01-26T04:27:04.944Z,931.08
2017-01-26T04:27:33.112Z,931.07
2017-01-26T04:28:01.249Z,931.05
2017-01-26T04:28:29.423Z,931.09
2017-01-26T04:28:57.587Z,931.06
2017-01-26T04:29:25.740Z,931.1
2017-01-26T04:29:53.892Z,931.1
2017-01-26T04:30:22.101Z,931.1
2017-01-26T04:30:50.263Z,931.13
2017-01-26T04:31:18.428Z,931.08
2017-01-26T04:31:46.567Z,931.16
2017-01-26T04:32:14.724Z,931.08
2017-01-26T04:32:42.873Z,931.11
2017-01-26T04:33:11.421Z,931.07
2017-01-26T04:33:40.148Z,931.06
2017-01-26T04:34:08.311Z,931.04
2017-01-26T04:34:36.494Z,931.06
2017-01-26T04:35:04.672Z,931.07
2017-01-26T04:35:32.845Z,931.06
2017-01-26T04:36:01.027Z,931.07
2017-01-26T04:36:29.298Z,931.06
2017-01-26T04:36:57.454Z,931.05
2017-01-26T04:37:25.632Z,931.02
2017-01-26T04:37:53.816Z,931.11
2017-01-26T04:38:21.948Z,931.04
2017-01-26T04:38:50.104Z,931.06
2017-01-26T04:39:18.263Z,931.07
2017-01-26T04:39:46.398Z,931.07
2017-01-26T04:40:14.566Z,931.06
2017-01-26T04:40:42.715Z,931.1
2017-01-26T04:41:10.904Z,931.1
2017-01-26T04:41:39.079Z,931.09
2017-01-26T04:42:07.533Z,931.13
2017-01-26T04:42:36.582Z,931.11
2017-01-26T04:43:04.864Z,931.13
2017-01-26T04:43:33.132Z,931.09
2017-01-26T04:44:03.098Z,931.11
2017-01-26T04:44:31.258Z,931.1
2017-01-26T04:44:59.677Z,931.16
2017-01-26T04:45:27.834Z,931.12
2017-01-26T04:45:55.967Z,931.14
2017-01-26T04:46:24.175Z,931.15
2017-01-26T04:46:52.333Z,931.15
2017-01-26T04:47:20.528Z,931.15
2017-01-26T04:47:48.693Z,931.1
2017-01-26T04:48:16.871Z,931.12
2017-01-26T04:48:45.034Z,931.14
2017-01-26T04:49:13.276Z,931.14
2017-01-26T04:49:41.431Z,931.16
2017-01-26T04:50:09.565Z,931.16
2017-01-26T04:50:37.712Z,931.13
2017-01-26T04:51:05.974Z,931.11
2017-01-26T04:51:34.102Z,931.1
2017-01-26T04:52:02.274Z,931.14
2017-01-26T04:52:30.419Z,931.11
2017-01-26T04:52:58.543Z,931.12
2017-01-26T04:53:26.687Z,931.11
2017-01-26T04:53:54.839Z,931.12
2017-01-26T04:54:23.023Z,931.09
2017-01-26T04:54:51.190Z,931.11
2017-01-26T04:55:19.457Z,931.1
2017-01-26T04:55:47.597Z,931.07
2017-01-26T04:56:15.742Z,931.1
2017-01-26T04:56:43.883Z,931.08
2017-01-26T04:57:12.186Z,931.05
2017-01-26T04:57:40.331Z,931.09
2017-01-26T04:58:08.517Z,931.04
2017-01-26T04:58:36.678Z,931.06
2017-01-26T04:59:04.835Z,931
2017-01-26T04:59:33.125Z,931.03
2017-01-26T05:00:01.302Z,931.02
2017-01-26T05:00:29.553Z,931.02
2017-01-26T05:00:57.749Z,931.02
2017-01-26T05:01:25.933Z,931.02
2017-01-26T05:01:54.077Z,931.02
2017-01-26T05:02:22.341Z,931.01
2017-01-26T05:02:51.925Z,931.03
2017-01-26T05:03:20.383Z,931.04
2017-01-26T05:03:48.565Z,931.04
2017-01-26T05:04:16.746Z,931.01
2017-01-26T05:04:44.944Z,931.01
2017-01-26T05:05:13.121Z,931.01
2017-01-26T05:05:41.421Z,930.99
2017-01-26T05:06:09.640Z,931.01
2017-01-26T05:06:37.826Z,930.98
2017-01-26T05:07:06.027Z,930.97
2017-01-26T05:07:34.191Z,930.94
2017-01-26T05:08:02.364Z,930.98
2017-01-26T05:08:30.517Z,930.95
2017-01-26T05:08:58.681Z,930.95
2017-01-26T05:09:26.891Z,930.91
2017-01-26T05:09:55.076Z,930.94
2017-01-26T05:10:23.255Z,930.9
2017-01-26T05:10:51.434Z,930.88
2017-01-26T05:11:19.628Z,930.9
2017-01-26T05:11:47.875Z,930.9
2017-01-26T05:12:16.077Z,930.92
2017-01-26T05:12:44.345Z,930.87
2017-01-26T05:13:12.689Z,930.91
2017-01-26T05:13:40.861Z,930.89
2017-01-26T05:14:09.156Z,930.91
2017-01-26T05:14:37.325Z,930.89
2017-01-26T05:15:05.515Z,930.91
2017-01-26T05:15:33.711Z,930.9
2017-01-26T05:16:01.954Z,930.89
2017-01-26T05:16:30.166Z,930.88
2017-01-26T05:16:58.339Z,930.88
2017-01-26T05:17:26.538Z,930.92
2017-01-26T05:17:54.712Z,930.92
2017-01-26T05:18:23.038Z,930.93
2017-01-26T05:18:51.210Z,930.92
2017-01-26T05:19:19.409Z,930.97
2017-01-26T05:19:47.584Z,930.93
2017-01-26T05:20:15.723Z,930.94
2017-01-26T05:20:43.884Z,930.92
2017-01-26T05:21:12.145Z,930.94
2017-01-26T05:21:40.299Z,930.91
2017-01-26T05:22:08.512Z,930.95
2017-01-26T05:22:36.694Z,930.93
2017-01-26T05:23:04.872Z,930.93
2017-01-26T05:23:33.158Z,930.91
2017-01-26T05:24:01.354Z,930.93
2017-01-26T05:24:29.673Z,930.9
2017-01-26T05:24:57.852Z,930.89
2017-01-26T05:25:26.061Z,930.9
2017-01-26T05:25:54.212Z,930.88
2017-01-26T05:26:22.379Z,930.87
2017-01-26T05:26:50.551Z,930.88
2017-01-26T05:27:18.714Z,930.85
2017-01-26T05:27:46.885Z,930.86
2017-01-26T05:28:15.052Z,930.85
2017-01-26T05:28:43.236Z,930.83
2017-01-26T05:29:11.398Z,930.84
2017-01-26T05:29:39.562Z,930.84
2017-01-26T05:30:07.749Z,930.85
2017-01-26T05:30:35.951Z,930.87
2017-01-26T05:31:04.141Z,930.89
2017-01-26T05:31:32.338Z,930.89
2017-01-26T05:32:00.570Z,930.85
2017-01-26T05:32:28.726Z,930.86
2017-01-26T05:32:56.915Z,930.87
2017-01-26T05:33:25.149Z,930.83
2017-01-26T05:33:53.351Z,930.86
2017-01-26T05:34:21.525Z,930.86
2017-01-26T05:34:49.690Z,930.84
2017-01-26T05:35:17.859Z,930.87
2017-01-26T05:35:45.996Z,930.83
2017-01-26T05:36:14.179Z,930.83
2017-01-26T05:36:42.370Z,930.86
2017-01-26T05:37:10.547Z,930.85
2017-01-26T05:37:38.721Z,930.88
2017-01-26T05:38:06.900Z,930.85
2017-01-26T05:38:35.084Z,930.86
2017-01-26T05:39:03.275Z,930.85
2017-01-26T05:39:31.451Z,930.83
2017-01-26T05:39:59.740Z,930.86
2017-01-26T05:40:28.026Z,930.84
2017-01-26T05:40:56.224Z,930.82
2017-01-26T05:41:24.455Z,930.83
2017-01-26T05:41:52.628Z,930.79
2017-01-26T05:42:20.802Z,930.84
2017-01-26T05:42:49.050Z,930.8
2017-01-26T05:43:17.297Z,930.78
2017-01-26T05:43:45.576Z,930.78
2017-01-26T05:44:13.750Z,930.79
2017-01-26T05:44:41.903Z,930.82
2017-01-26T05:45:10.072Z,930.81
2017-01-26T05:45:38.239Z,930.78
2017-01-26T05:46:06.415Z,930.79
2017-01-26T05:46:34.568Z,930.75
2017-01-26T05:47:02.738Z,930.77
2017-01-26T05:47:30.999Z,930.75
2017-01-26T05:47:59.148Z,930.77
2017-01-26T05:48:27.312Z,930.73
2017-01-26T05:48:55.508Z,930.76
2017-01-26T05:49:23.832Z,930.76
2017-01-26T05:49:52.014Z,930.77
2017-01-26T05:50:20.198Z,930.78
2017-01-26T05:50:48.361Z,930.78
2017-01-26T05:51:16.625Z,930.74
2017-01-26T05:51:44.789Z,930.74
2017-01-26T05:52:13.041Z,930.75
2017-01-26T05:52:41.255Z,930.74
2017-01-26T05:53:09.436Z,930.73
2017-01-26T05:53:37.621Z,930.72